createdAt,value
2019-01-05T00:00:31.349Z,95.27
2019-01-05T00:03:19.307Z,78.17
2019-01-05T00:05:58.371Z,82.23
2019-01-05T00:08:40.814Z,90.53
2019-01-05T00:11:26.551Z,91.97
2019-01-05T00:14:13.081Z,88.53
2019-01-05T00:16:43.680Z,83.23
2019-01-05T00:19:27.182Z,74.03
2019-01-05T00:22:05.103Z,71.67
2019-01-05T00:24:47.657Z,89.43
2019-01-05T00:27:34.253Z,83.30
2019-01-05T00:30:21.588Z,92.27
2019-01-05T00:32:55.447Z,73.90
2019-01-05T00:35:28.883Z,63.33
2019-01-05T00:38:08.510Z,80.50
2019-01-05T00:40:39.183Z,78.03
2019-01-05T00:43:25.754Z,79.43
2019-01-05T00:45:58.253Z,78.67
2019-01-05T00:48:30.760Z,74.73
2019-01-05T00:51:21.737Z,68.27
2019-01-05T00:53:56.474Z,74.07
2019-01-05T00:56:44.656Z,74.27
2019-01-05T00:59:17.758Z,72.90
2019-01-05T01:01:47.967Z,65.20
2019-01-05T01:04:21.093Z,62.40
2019-01-05T01:06:54.290Z,70.87
2019-01-05T01:09:24.450Z,57.10
2019-01-05T01:11:54.874Z,63.77
2019-01-05T01:14:37.188Z,64.53
2019-01-05T01:17:07.670Z,56.33
2019-01-05T01:19:54.686Z,60.87
2019-01-05T01:22:41.095Z,62.30
2019-01-05T01:25:24.065Z,63.57
2019-01-05T01:27:57.317Z,59.87
2019-01-05T01:30:45.175Z,56.07
2019-01-05T01:33:15.966Z,58.57
2019-01-05T01:36:02.931Z,53.83
2019-01-05T01:38:43.289Z,50.80
2019-01-05T01:41:23.009Z,53.97
2019-01-05T01:43:59.696Z,53.10
2019-01-05T01:46:47.185Z,42.40
2019-01-05T01:49:23.997Z,45.53
2019-01-05T01:51:56.189Z,43.53
2019-01-05T01:54:33.447Z,45.57
2019-01-05T01:57:06.847Z,44.63
2019-01-05T01:59:42.839Z,39.10
2019-01-05T02:02:16.245Z,38.73
2019-01-05T02:05:02.951Z,37.97
2019-01-05T02:07:37.542Z,34.80
2019-01-05T02:10:24.997Z,36.33
2019-01-05T02:13:07.264Z,31.23
2019-01-05T02:15:41.847Z,35.63
2019-01-05T02:18:20.441Z,29.63
2019-01-05T02:20:55.196Z,29.13
2019-01-05T02:23:49.436Z,27.43
2019-01-05T02:26:31.508Z,36.90
2019-01-05T02:29:25.844Z,30.87
2019-01-05T02:32:22.677Z,31.53
2019-01-05T02:35:19.822Z,29.57
2019-01-05T02:37:55.629Z,34.53
2019-01-05T02:41:01.268Z,28.33
2019-01-05T02:44:12.313Z,31.13
2019-01-05T02:47:20.447Z,29.63
2019-01-05T02:50:28.483Z,27.97
2019-01-05T02:53:39.223Z,29.63
2019-01-05T02:56:49.758Z,24.37
2019-01-05T02:59:29.329Z,25.50
2019-01-05T03:02:38.905Z,24.40
2019-01-05T03:05:15.061Z,26.63
2019-01-05T03:08:12.377Z,28.17
2019-01-05T03:11:03.641Z,25.90
2019-01-05T03:13:54.163Z,20.00
2019-01-05T03:16:45.686Z,21.13
2019-01-05T03:19:33.658Z,18.77
2019-01-05T03:22:27.570Z,27.27
2019-01-05T03:25:15.704Z,23.27
2019-01-05T03:28:23.989Z,22.70
2019-01-05T03:31:25.773Z,22.13
2019-01-05T03:34:37.538Z,19.40
2019-01-05T03:37:51.074Z,20.07
2019-01-05T03:40:51.463Z,18.83
2019-01-05T03:43:30.158Z,23.00
2019-01-05T03:46:27.001Z,15.53
2019-01-05T03:49:19.328Z,19.67
2019-01-05T03:52:22.396Z,20.20
2019-01-05T03:55:25.613Z,17.77
2019-01-05T03:58:20.113Z,17.10
2019-01-05T04:01:29.839Z,21.53
2019-01-05T04:04:03.299Z,20.73
2019-01-05T04:06:57.621Z,21.40
2019-01-05T04:09:54.402Z,18.00
2019-01-05T04:12:39.415Z,19.83
2019-01-05T04:15:53.376Z,21.80
2019-01-05T04:22:07.645Z,24.40
2019-01-05T04:25:26.453Z,17.07
2019-01-05T04:28:05.831Z,16.57
2019-01-05T04:31:09.030Z,17.37
2019-01-05T04:33:54.538Z,17.77
2019-01-05T04:36:39.949Z,15.23
2019-01-05T04:39:36.068Z,13.13
2019-01-05T04:42:18.323Z,17.70
2019-01-05T04:45:05.940Z,11.90
2019-01-05T04:48:04.978Z,16.47
2019-01-05T04:50:41.056Z,17.83
2019-01-05T04:53:52.390Z,15.70
2019-01-05T04:57:08.111Z,11.80
2019-01-05T04:59:44.015Z,19.57
2019-01-05T05:02:39.738Z,10.00
2019-01-05T05:05:39.579Z,26.83
2019-01-05T05:08:47.520Z,12.63
2019-01-05T05:11:45.883Z,7.90
2019-01-05T05:14:39.909Z,9.60
2019-01-05T05:17:32.841Z,7.50
2019-01-05T05:20:43.378Z,8.40
2019-01-05T05:23:46.807Z,8.60
2019-01-05T05:26:36.716Z,7.87
2019-01-05T05:29:36.558Z,9.10
2019-01-05T05:32:32.442Z,8.20
2019-01-05T05:35:32.961Z,8.60
2019-01-05T05:38:12.009Z,8.57
2019-01-05T05:41:16.952Z,11.07
2019-01-05T05:44:08.139Z,10.40
2019-01-05T05:46:41.505Z,12.47
2019-01-05T05:49:23.905Z,13.03
2019-01-05T05:52:29.977Z,32.93
2019-01-05T05:55:15.331Z,14.90
2019-01-05T05:58:03.999Z,10.63
2019-01-05T06:01:27.413Z,9.73
2019-01-05T06:04:15.368Z,12.27
2019-01-05T06:06:51.689Z,11.23
2019-01-05T06:09:51.948Z,17.07
2019-01-05T06:12:28.324Z,70.23
2019-01-05T06:15:32.661Z,16.00
2019-01-05T06:18:21.074Z,10.83
2019-01-05T06:21:35.704Z,16.50
2019-01-05T06:24:36.351Z,110.07
2019-01-05T06:27:52.260Z,27.60
2019-01-05T06:30:31.742Z,21.03
2019-01-05T06:33:45.318Z,10.40
2019-01-05T06:36:48.258Z,13.83
2019-01-05T06:40:06.757Z,13.77
2019-01-05T06:43:00.869Z,13.73
2019-01-05T06:46:08.888Z,17.50
2019-01-05T06:48:50.961Z,13.60
2019-01-05T06:51:52.870Z,14.83
2019-01-05T06:55:03.041Z,11.03
2019-01-05T06:57:56.330Z,10.50
2019-01-05T07:00:55.994Z,7.67
2019-01-05T07:04:01.986Z,10.13
2019-01-05T07:07:14.624Z,11.40
2019-01-05T07:10:39.249Z,9.60
2019-01-05T07:13:24.657Z,12.43
2019-01-05T07:16:23.311Z,12.10
2019-01-05T07:19:24.572Z,11.77
2019-01-05T07:22:09.695Z,16.33
2019-01-05T07:25:01.132Z,14.57
2019-01-05T07:28:02.992Z,17.40
2019-01-05T07:31:06.663Z,12.53
2019-01-05T07:33:48.510Z,12.00
2019-01-05T07:36:55.581Z,8.70
2019-01-05T07:40:13.940Z,20.33
2019-01-05T07:43:06.190Z,8.10
2019-01-05T07:45:58.277Z,11.83
2019-01-05T07:49:27.604Z,13.90
2019-01-05T07:52:30.100Z,8.80
2019-01-05T07:55:17.977Z,9.93
2019-01-05T07:58:03.133Z,25.50
2019-01-05T08:00:54.138Z,9.90
2019-01-05T08:03:58.561Z,5.50
2019-01-05T08:07:19.459Z,12.37
2019-01-05T08:09:59.322Z,10.57
2019-01-05T08:12:49.728Z,12.03
2019-01-05T08:15:58.026Z,14.57
2019-01-05T08:18:49.148Z,12.43
2019-01-05T08:21:52.895Z,10.07
2019-01-05T08:24:37.988Z,9.07
2019-01-05T08:28:03.070Z,9.27
2019-01-05T08:31:05.296Z,15.63
2019-01-05T08:34:02.654Z,14.33
2019-01-05T08:37:04.313Z,11.93
2019-01-05T08:39:46.254Z,21.47
2019-01-05T08:42:35.948Z,14.60
2019-01-05T08:45:51.869Z,11.90
2019-01-05T08:48:43.031Z,14.93
2019-01-05T08:51:21.877Z,19.67
2019-01-05T08:54:07.031Z,17.37
2019-01-05T08:57:11.306Z,11.80
2019-01-05T09:00:25.213Z,16.27
2019-01-05T09:03:23.719Z,17.50
2019-01-05T09:06:16.447Z,15.20
2019-01-05T09:09:19.944Z,14.50
2019-01-05T09:12:18.772Z,12.20
2019-01-05T09:15:10.048Z,11.43
2019-01-05T09:18:18.041Z,11.27
2019-01-05T09:21:05.740Z,8.43
2019-01-05T09:24:10.480Z,11.90
2019-01-05T09:26:55.590Z,11.50
2019-01-05T09:29:54.189Z,12.20
2019-01-05T09:33:06.731Z,12.00
2019-01-05T09:36:02.150Z,7.30
2019-01-05T09:38:53.977Z,8.43
2019-01-05T09:41:55.189Z,6.83
2019-01-05T09:45:04.470Z,16.53
2019-01-05T09:47:57.057Z,7.53
2019-01-05T09:50:57.708Z,14.33
2019-01-05T09:53:53.265Z,9.40
2019-01-05T09:56:53.463Z,14.07
2019-01-05T09:59:32.177Z,12.07
2019-01-05T10:02:08.156Z,10.47
2019-01-05T10:05:02.624Z,27.37
2019-01-05T10:07:42.178Z,30.43
2019-01-05T10:10:34.014Z,23.67
2019-01-05T10:13:40.578Z,14.93
2019-01-05T10:16:45.714Z,32.23
2019-01-05T10:19:55.679Z,14.67
2019-01-05T10:22:43.500Z,12.77
2019-01-05T10:25:43.770Z,16.97
2019-01-05T10:28:43.130Z,13.13
2019-01-05T10:31:34.400Z,10.70
2019-01-05T10:34:28.788Z,12.67
2019-01-05T10:37:13.790Z,13.47
2019-01-05T10:40:12.725Z,10.77
2019-01-05T10:43:14.260Z,14.33
2019-01-05T10:46:14.322Z,19.30
2019-01-05T10:49:09.773Z,10.43
2019-01-05T10:51:54.843Z,9.63
2019-01-05T10:55:06.424Z,11.27
2019-01-05T10:58:12.986Z,9.60
2019-01-05T11:01:04.429Z,14.53
2019-01-05T11:04:08.000Z,13.27
2019-01-05T11:07:17.325Z,7.70
2019-01-05T11:10:24.230Z,17.97
2019-01-05T11:13:18.918Z,14.83
2019-01-05T11:16:10.300Z,11.53
2019-01-05T11:19:12.278Z,11.30
2019-01-05T11:22:01.976Z,8.90
2019-01-05T11:25:23.388Z,12.97
2019-01-05T11:28:20.020Z,11.80
2019-01-05T11:31:30.469Z,11.70
2019-01-05T11:34:15.423Z,14.73
2019-01-05T11:37:07.799Z,9.20
2019-01-05T11:39:58.418Z,11.70
2019-01-05T11:42:54.309Z,11.07
2019-01-05T11:45:53.106Z,12.27
2019-01-05T11:48:47.338Z,10.93
2019-01-05T11:51:43.053Z,11.03
2019-01-05T11:54:44.771Z,16.60
2019-01-05T11:57:53.878Z,14.10
2019-01-05T12:00:44.731Z,13.07
2019-01-05T12:03:38.910Z,13.97
2019-01-05T12:06:31.811Z,17.13
2019-01-05T12:09:30.735Z,22.20
2019-01-05T12:12:51.530Z,11.40
2019-01-05T12:15:39.417Z,12.80
2019-01-05T12:18:33.976Z,21.77
2019-01-05T12:21:44.633Z,12.80
2019-01-05T12:24:51.314Z,14.03
2019-01-05T12:27:39.647Z,14.80
2019-01-05T12:30:38.499Z,15.00
2019-01-05T12:33:33.629Z,17.33
2019-01-05T12:36:41.574Z,15.07
2019-01-05T12:39:42.472Z,17.17
2019-01-05T12:42:48.591Z,14.53
2019-01-05T12:45:47.497Z,26.43
2019-01-05T12:48:47.415Z,23.53
2019-01-05T12:51:58.060Z,25.87
2019-01-05T12:55:06.066Z,23.43
2019-01-05T12:58:01.821Z,20.47
2019-01-05T13:01:00.010Z,15.70
2019-01-05T13:03:36.038Z,17.53
2019-01-05T13:06:27.488Z,15.10
2019-01-05T13:09:36.886Z,14.20
2019-01-05T13:12:25.253Z,19.67
2019-01-05T13:15:21.298Z,22.97
2019-01-05T13:18:25.833Z,38.57
2019-01-05T13:21:18.889Z,19.90
2019-01-05T13:24:31.306Z,16.83
2019-01-05T13:27:19.504Z,26.53
2019-01-05T13:30:24.532Z,20.87
2019-01-05T13:33:33.784Z,15.03
2019-01-05T13:36:31.879Z,17.30
2019-01-05T13:39:42.905Z,17.80
2019-01-05T13:42:30.308Z,27.00
2019-01-05T13:45:48.205Z,18.57
2019-01-05T13:48:35.983Z,21.00
2019-01-05T13:51:48.450Z,14.90
2019-01-05T13:54:31.139Z,19.93
2019-01-05T13:57:13.406Z,24.10
2019-01-05T13:59:44.341Z,16.70
2019-01-05T14:02:17.463Z,16.30
2019-01-05T14:05:02.896Z,14.17
2019-01-05T14:07:49.370Z,10.33
2019-01-05T14:10:28.271Z,10.83
2019-01-05T14:12:58.609Z,10.47
2019-01-05T14:15:31.673Z,14.93
2019-01-05T14:18:14.029Z,6.03
2019-01-05T14:20:53.176Z,6.10
2019-01-05T14:23:37.973Z,8.03
2019-01-05T14:26:11.391Z,6.37
2019-01-05T14:28:57.823Z,7.00
2019-01-05T14:31:42.962Z,7.10
2019-01-05T14:34:29.408Z,13.43
2019-01-05T14:37:02.672Z,10.03
2019-01-05T14:39:44.823Z,7.30
2019-01-05T14:42:15.210Z,14.40
2019-01-05T14:44:57.654Z,3.43
2019-01-05T14:47:44.253Z,12.70
2019-01-05T14:50:14.688Z,8.23
2019-01-05T14:52:53.231Z,5.53
2019-01-05T14:55:47.220Z,14.63
2019-01-05T14:58:27.595Z,13.33
2019-01-05T15:01:04.448Z,8.90
2019-01-05T15:03:40.841Z,9.90
2019-01-05T15:06:25.836Z,11.73
2019-01-05T15:08:56.178Z,11.07
2019-01-05T15:11:42.850Z,7.63
2019-01-05T15:14:12.934Z,10.33
2019-01-05T15:16:46.092Z,6.30
2019-01-05T15:19:19.231Z,7.20
2019-01-05T15:21:58.355Z,12.67
2019-01-05T15:24:40.852Z,17.20
2019-01-05T15:27:26.291Z,12.40
2019-01-05T15:29:59.465Z,13.27
2019-01-05T15:32:29.884Z,8.20
2019-01-05T15:35:15.371Z,13.17
2019-01-05T15:37:45.497Z,11.43
2019-01-05T15:40:33.853Z,7.20
2019-01-05T15:43:06.748Z,9.20
2019-01-05T15:45:53.448Z,7.87
2019-01-05T15:48:32.562Z,6.97
2019-01-05T15:51:18.856Z,8.10
2019-01-05T15:54:05.129Z,10.63
2019-01-05T15:56:38.276Z,6.80
2019-01-05T15:59:26.870Z,9.63
2019-01-05T16:01:56.949Z,12.20
2019-01-05T16:04:43.599Z,12.40
2019-01-05T16:07:19.477Z,9.10
2019-01-05T16:10:01.219Z,7.33
2019-01-05T16:12:37.772Z,15.60
2019-01-05T16:15:18.068Z,10.60
2019-01-05T16:18:14.851Z,13.93
2019-01-05T16:20:33.693Z,12.17
2019-01-05T16:23:10.246Z,18.27
2019-01-05T16:25:40.917Z,16.27
2019-01-05T16:28:13.866Z,8.13
2019-01-05T16:31:00.514Z,11.77
2019-01-05T16:34:01.249Z,14.10
2019-01-05T16:36:22.898Z,12.43
2019-01-05T16:39:02.264Z,10.63
2019-01-05T16:41:48.820Z,10.00
2019-01-05T16:44:35.642Z,11.97
2019-01-05T16:47:18.010Z,9.00
2019-01-05T16:50:00.452Z,11.77
2019-01-05T16:52:33.330Z,10.40
2019-01-05T16:55:20.491Z,13.57
2019-01-05T16:57:59.688Z,15.80
2019-01-05T17:00:29.740Z,13.00
2019-01-05T17:03:12.084Z,12.90
2019-01-05T17:05:42.265Z,48.17
2019-01-05T17:08:21.744Z,17.23
2019-01-05T17:10:54.959Z,13.73
2019-01-05T17:13:33.927Z,15.50
2019-01-05T17:16:19.694Z,13.70
2019-01-05T17:18:55.789Z,9.50
2019-01-05T17:21:25.912Z,10.67
2019-01-05T17:24:12.598Z,10.93
2019-01-05T17:26:42.965Z,17.03
2019-01-05T17:29:22.404Z,12.30
2019-01-05T17:32:08.943Z,18.03
2019-01-05T17:34:42.200Z,20.83
2019-01-05T17:37:15.736Z,14.93
2019-01-05T17:39:46.152Z,16.30
2019-01-05T17:42:34.098Z,11.07
2019-01-05T17:45:07.320Z,17.40
2019-01-05T17:47:39.973Z,11.80
2019-01-05T17:50:13.181Z,10.97
2019-01-05T17:52:59.664Z,12.83
2019-01-05T17:55:38.740Z,9.90
2019-01-05T17:58:23.525Z,13.60
2019-01-05T18:00:56.241Z,13.10
2019-01-05T18:03:45.670Z,28.43
2019-01-05T18:06:21.546Z,65.83
2019-01-05T18:08:53.427Z,20.50
2019-01-05T18:11:32.078Z,27.53
2019-01-05T18:14:02.236Z,19.03
2019-01-05T18:16:35.387Z,25.07
2019-01-05T18:19:17.574Z,25.93
2019-01-05T18:24:45.398Z,19.43
2019-01-05T18:27:18.735Z,38.17
2019-01-05T18:29:58.275Z,38.77
2019-01-05T18:32:31.446Z,29.93
2019-01-05T18:35:18.214Z,43.77
2019-01-05T18:37:57.208Z,34.80
2019-01-05T18:40:33.322Z,26.03
2019-01-05T18:43:03.674Z,58.63
2019-01-05T18:45:46.061Z,35.30
2019-01-05T18:48:16.314Z,15.97
2019-01-05T18:50:46.623Z,57.30
2019-01-05T18:53:32.884Z,27.60
2019-01-05T18:56:12.004Z,28.40
2019-01-05T18:58:44.863Z,26.73
2019-01-05T19:01:15.153Z,10.90
2019-01-05T19:03:54.526Z,29.70
2019-01-05T19:06:24.881Z,17.90
2019-01-05T19:08:54.973Z,11.10
2019-01-05T19:11:31.130Z,11.37
2019-01-05T19:14:16.302Z,14.87
2019-01-05T19:16:52.079Z,14.70
2019-01-05T19:19:24.873Z,23.67
2019-01-05T19:21:58.122Z,13.30
2019-01-05T19:24:40.720Z,15.20
2019-01-05T19:27:11.085Z,16.47
2019-01-05T19:29:50.487Z,12.37
2019-01-05T19:32:37.279Z,11.90
2019-01-05T19:35:13.518Z,17.60
2019-01-05T19:37:59.972Z,11.53
2019-01-05T19:40:33.324Z,14.53
2019-01-05T19:43:03.657Z,13.70
2019-01-05T19:45:50.536Z,19.17
2019-01-05T19:48:37.240Z,11.60
2019-01-05T19:51:10.332Z,15.73
2019-01-05T19:53:40.700Z,10.93
2019-01-05T19:56:11.045Z,13.53
2019-01-05T19:58:46.936Z,10.90
2019-01-05T20:01:26.248Z,14.30
2019-01-05T20:04:11.358Z,16.43
2019-01-05T20:06:53.295Z,22.83
2019-01-05T20:09:26.319Z,19.50
2019-01-05T20:11:56.676Z,10.70
2019-01-05T20:14:42.051Z,14.30
2019-01-05T20:17:24.131Z,19.43
2019-01-05T20:19:57.146Z,12.03
2019-01-05T20:22:42.659Z,14.10
2019-01-05T20:25:18.917Z,12.60
2019-01-05T20:27:54.944Z,9.97
2019-01-05T20:30:27.682Z,10.90
2019-01-05T20:33:06.494Z,24.03
2019-01-05T20:35:36.582Z,14.70
2019-01-05T20:38:09.375Z,14.97
2019-01-05T20:40:46.077Z,15.27
2019-01-05T20:43:31.180Z,11.83
2019-01-05T20:46:04.111Z,13.47
2019-01-05T20:48:36.903Z,12.00
2019-01-05T20:51:10.074Z,16.80
2019-01-05T20:53:48.886Z,18.50
2019-01-05T20:56:22.019Z,12.60
2019-01-05T20:59:08.179Z,23.80
2019-01-05T21:01:38.564Z,19.93
2019-01-05T21:04:11.355Z,17.10
2019-01-05T21:06:44.454Z,17.10
2019-01-05T21:09:26.450Z,12.50
2019-01-05T21:12:13.005Z,20.13
2019-01-05T21:14:52.540Z,18.20
2019-01-05T21:17:28.396Z,16.77
2019-01-05T21:20:04.541Z,17.80
2019-01-05T21:22:52.703Z,23.73
2019-01-05T21:25:41.377Z,17.80
2019-01-05T21:28:29.384Z,13.93
2019-01-05T21:30:59.732Z,13.80
2019-01-05T21:33:46.467Z,13.80
2019-01-05T21:36:19.270Z,20.33
2019-01-05T21:39:05.719Z,12.13
2019-01-05T21:41:52.169Z,15.80
2019-01-05T21:44:25.363Z,13.77
2019-01-05T21:47:07.758Z,19.00
2019-01-05T21:49:53.958Z,15.30
2019-01-05T21:52:24.027Z,15.40
2019-01-05T21:55:09.428Z,16.93
2019-01-05T21:57:42.016Z,13.73
2019-01-05T22:00:30.920Z,11.10
2019-01-05T22:03:10.477Z,12.27
2019-01-05T22:05:47.948Z,16.30
2019-01-05T22:08:37.199Z,17.53
2019-01-05T22:11:09.975Z,14.33
2019-01-05T22:13:52.339Z,14.20
2019-01-05T22:16:25.836Z,15.27
2019-01-05T22:18:58.655Z,16.20
2019-01-05T22:21:31.771Z,13.60
2019-01-05T22:24:04.591Z,17.73
2019-01-05T22:26:37.716Z,13.00
2019-01-05T22:29:14.088Z,12.97
2019-01-05T22:31:47.305Z,16.63
2019-01-05T22:34:20.644Z,18.00
2019-01-05T22:36:50.999Z,17.50
2019-01-05T22:39:23.853Z,18.63
2019-01-05T22:42:00.193Z,16.60
2019-01-05T22:44:33.515Z,14.27
2019-01-05T22:47:15.677Z,13.30
2019-01-05T22:49:48.208Z,21.57
2019-01-05T22:52:34.773Z,17.87
2019-01-05T22:55:14.468Z,14.57
2019-01-05T22:57:44.569Z,14.07
2019-01-05T23:00:23.832Z,13.90
2019-01-05T23:02:54.315Z,15.73
2019-01-05T23:05:24.679Z,15.53
2019-01-05T23:08:14.295Z,23.10
2019-01-05T23:10:59.814Z,20.90
2019-01-05T23:13:32.663Z,27.07
2019-01-05T23:16:02.749Z,15.67
2019-01-05T23:18:33.151Z,12.27
2019-01-05T23:21:09.336Z,25.10
2019-01-05T23:23:48.736Z,12.63
2019-01-05T23:26:24.908Z,13.53
2019-01-05T23:29:00.989Z,19.13
2019-01-05T23:31:31.463Z,15.10
2019-01-05T23:34:07.317Z,18.80
2019-01-05T23:36:39.881Z,20.20
2019-01-05T23:39:13.361Z,15.93
2019-01-05T23:41:58.655Z,14.20
2019-01-05T23:44:37.826Z,14.27
2019-01-05T23:47:19.876Z,12.33
2019-01-05T23:49:52.725Z,14.43
2019-01-05T23:52:23.051Z,13.13
2019-01-05T23:55:01.934Z,16.23
2019-01-05T23:57:47.174Z,16.50
